Terminal Aerodrome Forecast
Issued by NWS Memphis, TN

Home | Current Version | Previous Version | Text Only | Print | Product List | Glossary On
Versions: 1 2 3 4 5 6 7 8 9 10 11 12
000
FTUS44 KMEG 040520
TAFJBR
TAF
KJBR 040520Z 0406/0506 00000KT 6SM BR SKC
      TEMPO 0408/0412 3SM BR
     FM041500 13005KT P6SM SCT040 BKN250
     FM050100 VRB03KT P6SM SKC=

USA.gov is the U.S. government's official web portal to all federal, state and local government web resources and services.